sensor_id;sensor_type;location;lat;lon;timestamp;temperature;humidity
48043;DHT22;33988;47.992;8.820;2024-01-16T00:01:26;5.60;45.50
48043;DHT22;33988;47.992;8.820;2024-01-16T00:03:53;5.60;45.40
48043;DHT22;33988;47.992;8.820;2024-01-16T00:06:22;5.60;45.40
48043;DHT22;33988;47.992;8.820;2024-01-16T00:08:49;5.50;45.30
48043;DHT22;33988;47.992;8.820;2024-01-16T00:11:16;5.50;45.30
48043;DHT22;33988;47.992;8.820;2024-01-16T00:13:45;5.50;45.30
48043;DHT22;33988;47.992;8.820;2024-01-16T00:16:12;5.50;45.40
48043;DHT22;33988;47.992;8.820;2024-01-16T00:18:42;5.40;45.40
48043;DHT22;33988;47.992;8.820;2024-01-16T00:21:09;5.40;45.40
48043;DHT22;33988;47.992;8.820;2024-01-16T00:23:36;5.40;45.40
48043;DHT22;33988;47.992;8.820;2024-01-16T00:26:03;5.40;45.40
48043;DHT22;33988;47.992;8.820;2024-01-16T00:28:33;5.40;45.30
48043;DHT22;33988;47.992;8.820;2024-01-16T00:31:09;5.40;45.30
48043;DHT22;33988;47.992;8.820;2024-01-16T00:33:36;5.30;45.30
48043;DHT22;33988;47.992;8.820;2024-01-16T00:36:03;5.30;45.30
48043;DHT22;33988;47.992;8.820;2024-01-16T00:38:34;5.20;45.30
48043;DHT22;33988;47.992;8.820;2024-01-16T00:41:01;5.20;45.30
48043;DHT22;33988;47.992;8.820;2024-01-16T00:43:33;5.10;45.30
48043;DHT22;33988;47.992;8.820;2024-01-16T00:46:01;5.10;45.30
48043;DHT22;33988;47.992;8.820;2024-01-16T00:48:31;5.00;45.30
48043;DHT22;33988;47.992;8.820;2024-01-16T00:50:58;4.90;45.30
48043;DHT22;33988;47.992;8.820;2024-01-16T00:53:26;4.90;45.30
48043;DHT22;33988;47.992;8.820;2024-01-16T00:55:53;4.80;45.20
48043;DHT22;33988;47.992;8.820;2024-01-16T00:58:22;4.70;45.20
48043;DHT22;33988;47.992;8.820;2024-01-16T01:00:49;4.60;45.30
48043;DHT22;33988;47.992;8.820;2024-01-16T01:03:16;4.60;45.40
48043;DHT22;33988;47.992;8.820;2024-01-16T01:05:43;4.40;45.30
48043;DHT22;33988;47.992;8.820;2024-01-16T01:08:13;4.30;45.30
48043;DHT22;33988;47.992;8.820;2024-01-16T01:10:40;4.30;45.40
48043;DHT22;33988;47.992;8.820;2024-01-16T01:13:07;4.20;45.50
48043;DHT22;33988;47.992;8.820;2024-01-16T01:15:34;4.20;45.60
48043;DHT22;33988;47.992;8.820;2024-01-16T01:18:01;4.20;45.60
48043;DHT22;33988;47.992;8.820;2024-01-16T01:20:31;4.20;45.70
48043;DHT22;33988;47.992;8.820;2024-01-16T01:22:58;4.20;45.70
48043;DHT22;33988;47.992;8.820;2024-01-16T01:25:27;4.20;45.70
48043;DHT22;33988;47.992;8.820;2024-01-16T01:27:56;4.20;45.80
48043;DHT22;33988;47.992;8.820;2024-01-16T01:30:23;4.20;45.80
48043;DHT22;33988;47.992;8.820;2024-01-16T01:32:52;4.20;45.80
48043;DHT22;33988;47.992;8.820;2024-01-16T01:35:19;4.20;45.80
48043;DHT22;33988;47.992;8.820;2024-01-16T01:37:49;4.20;45.80
48043;DHT22;33988;47.992;8.820;2024-01-16T01:40:16;4.20;45.80
48043;DHT22;33988;47.992;8.820;2024-01-16T01:42:45;4.20;45.80
48043;DHT22;33988;47.992;8.820;2024-01-16T01:45:12;4.20;45.80
48043;DHT22;33988;47.992;8.820;2024-01-16T01:47:42;4.20;45.80
48043;DHT22;33988;47.992;8.820;2024-01-16T01:50:10;4.10;45.70
48043;DHT22;33988;47.992;8.820;2024-01-16T01:52:39;4.10;45.70
48043;DHT22;33988;47.992;8.820;2024-01-16T01:55:11;4.10;45.70
48043;DHT22;33988;47.992;8.820;2024-01-16T01:57:43;4.10;45.70
48043;DHT22;33988;47.992;8.820;2024-01-16T02:00:13;4.10;45.60
48043;DHT22;33988;47.992;8.820;2024-01-16T02:02:41;4.10;45.60
48043;DHT22;33988;47.992;8.820;2024-01-16T02:05:09;4.00;45.50
48043;DHT22;33988;47.992;8.820;2024-01-16T02:07:38;4.00;46.20
48043;DHT22;33988;47.992;8.820;2024-01-16T02:10:06;4.00;45.50
48043;DHT22;33988;47.992;8.820;2024-01-16T02:12:36;3.90;45.50
48043;DHT22;33988;47.992;8.820;2024-01-16T02:15:03;3.90;45.50
48043;DHT22;33988;47.992;8.820;2024-01-16T02:17:31;3.80;45.50
48043;DHT22;33988;47.992;8.820;2024-01-16T02:20:00;3.90;45.60
48043;DHT22;33988;47.992;8.820;2024-01-16T02:22:31;3.80;45.60
48043;DHT22;33988;47.992;8.820;2024-01-16T02:25:01;3.80;45.60
48043;DHT22;33988;47.992;8.820;2024-01-16T02:27:30;3.80;45.70
48043;DHT22;33988;47.992;8.820;2024-01-16T02:29:57;3.70;45.60
48043;DHT22;33988;47.992;8.820;2024-01-16T02:32:24;3.70;45.60
48043;DHT22;33988;47.992;8.820;2024-01-16T02:34:54;3.70;45.60
48043;DHT22;33988;47.992;8.820;2024-01-16T02:37:21;3.60;45.60
48043;DHT22;33988;47.992;8.820;2024-01-16T02:39:48;3.60;45.60
48043;DHT22;33988;47.992;8.820;2024-01-16T02:42:16;3.60;45.70
48043;DHT22;33988;47.992;8.820;2024-01-16T02:44:43;3.60;45.70
48043;DHT22;33988;47.992;8.820;2024-01-16T02:47:10;3.50;45.70
48043;DHT22;33988;47.992;8.820;2024-01-16T02:49:39;3.50;45.70
48043;DHT22;33988;47.992;8.820;2024-01-16T02:52:06;3.50;45.60
48043;DHT22;33988;47.992;8.820;2024-01-16T02:54:33;3.50;45.60
48043;DHT22;33988;47.992;8.820;2024-01-16T02:57:00;3.50;45.60
48043;DHT22;33988;47.992;8.820;2024-01-16T02:59:30;3.40;45.60
48043;DHT22;33988;47.992;8.820;2024-01-16T03:01:57;3.40;45.50
48043;DHT22;33988;47.992;8.820;2024-01-16T03:04:27;3.40;45.50
48043;DHT22;33988;47.992;8.820;2024-01-16T03:06:54;3.30;45.50
48043;DHT22;33988;47.992;8.820;2024-01-16T03:09:22;3.30;45.50
48043;DHT22;33988;47.992;8.820;2024-01-16T03:11:51;3.20;45.40
48043;DHT22;33988;47.992;8.820;2024-01-16T03:14:19;3.20;45.40
48043;DHT22;33988;47.992;8.820;2024-01-16T03:16:46;3.20;45.40
48043;DHT22;33988;47.992;8.820;2024-01-16T03:19:13;3.20;45.40
48043;DHT22;33988;47.992;8.820;2024-01-16T03:21:43;3.10;45.40
48043;DHT22;33988;47.992;8.820;2024-01-16T03:24:13;3.10;45.50
48043;DHT22;33988;47.992;8.820;2024-01-16T03:26:40;3.00;45.50
48043;DHT22;33988;47.992;8.820;2024-01-16T03:29:10;3.00;45.50
48043;DHT22;33988;47.992;8.820;2024-01-16T03:31:37;2.90;45.50
48043;DHT22;33988;47.992;8.820;2024-01-16T03:34:04;2.90;45.50
48043;DHT22;33988;47.992;8.820;2024-01-16T03:36:32;2.90;45.50
48043;DHT22;33988;47.992;8.820;2024-01-16T03:38:59;2.80;45.50
48043;DHT22;33988;47.992;8.820;2024-01-16T03:41:28;2.80;45.50
48043;DHT22;33988;47.992;8.820;2024-01-16T03:44:00;2.80;45.50
48043;DHT22;33988;47.992;8.820;2024-01-16T03:46:29;2.80;45.60
48043;DHT22;33988;47.992;8.820;2024-01-16T03:48:56;2.60;45.60
48043;DHT22;33988;47.992;8.820;2024-01-16T03:51:25;2.70;45.70
48043;DHT22;33988;47.992;8.820;2024-01-16T03:53:52;2.70;45.70
48043;DHT22;33988;47.992;8.820;2024-01-16T03:56:19;2.60;45.60
48043;DHT22;33988;47.992;8.820;2024-01-16T03:58:50;2.60;45.60
48043;DHT22;33988;47.992;8.820;2024-01-16T04:01:17;2.60;45.60
48043;DHT22;33988;47.992;8.820;2024-01-16T04:03:47;2.50;45.60
48043;DHT22;33988;47.992;8.820;2024-01-16T04:06:17;2.50;45.60
48043;DHT22;33988;47.992;8.820;2024-01-16T04:08:47;2.50;45.60
48043;DHT22;33988;47.992;8.820;2024-01-16T04:11:15;2.40;45.60
48043;DHT22;33988;47.992;8.820;2024-01-16T04:13:45;2.40;45.60
48043;DHT22;33988;47.992;8.820;2024-01-16T04:16:17;2.40;45.60
48043;DHT22;33988;47.992;8.820;2024-01-16T04:18:44;2.30;45.60
48043;DHT22;33988;47.992;8.820;2024-01-16T04:21:13;2.30;45.60
48043;DHT22;33988;47.992;8.820;2024-01-16T04:23:44;2.30;45.70
48043;DHT22;33988;47.992;8.820;2024-01-16T04:26:14;2.30;45.70
48043;DHT22;33988;47.992;8.820;2024-01-16T04:28:44;2.20;45.70
48043;DHT22;33988;47.992;8.820;2024-01-16T04:31:13;2.20;45.70
48043;DHT22;33988;47.992;8.820;2024-01-16T04:33:40;2.20;45.70
48043;DHT22;33988;47.992;8.820;2024-01-16T04:36:10;2.10;45.70
48043;DHT22;33988;47.992;8.820;2024-01-16T04:38:36;2.10;45.70
48043;DHT22;33988;47.992;8.820;2024-01-16T04:41:06;2.10;45.70
48043;DHT22;33988;47.992;8.820;2024-01-16T04:43:33;2.00;45.60
48043;DHT22;33988;47.992;8.820;2024-01-16T04:46:00;2.00;45.70
48043;DHT22;33988;47.992;8.820;2024-01-16T04:48:29;1.90;45.70
48043;DHT22;33988;47.992;8.820;2024-01-16T04:50:56;1.90;45.70
48043;DHT22;33988;47.992;8.820;2024-01-16T04:53:26;1.90;45.80
48043;DHT22;33988;47.992;8.820;2024-01-16T04:55:53;1.90;45.80
48043;DHT22;33988;47.992;8.820;2024-01-16T04:58:19;1.80;45.80
48043;DHT22;33988;47.992;8.820;2024-01-16T05:00:46;1.80;45.80
48043;DHT22;33988;47.992;8.820;2024-01-16T05:03:16;1.80;45.80
48043;DHT22;33988;47.992;8.820;2024-01-16T05:05:43;1.80;45.80
48043;DHT22;33988;47.992;8.820;2024-01-16T05:08:15;1.80;45.80
48043;DHT22;33988;47.992;8.820;2024-01-16T05:10:43;1.70;45.80
48043;DHT22;33988;47.992;8.820;2024-01-16T05:13:11;1.80;45.90
48043;DHT22;33988;47.992;8.820;2024-01-16T05:15:41;1.70;45.80
48043;DHT22;33988;47.992;8.820;2024-01-16T05:18:10;1.70;45.90
48043;DHT22;33988;47.992;8.820;2024-01-16T05:20:37;1.60;45.90
48043;DHT22;33988;47.992;8.820;2024-01-16T05:23:07;1.70;45.90
48043;DHT22;33988;47.992;8.820;2024-01-16T05:25:36;1.70;45.90
48043;DHT22;33988;47.992;8.820;2024-01-16T05:28:04;1.60;45.80
48043;DHT22;33988;47.992;8.820;2024-01-16T05:30:31;1.60;45.90
48043;DHT22;33988;47.992;8.820;2024-01-16T05:32:59;1.60;45.90
48043;DHT22;33988;47.992;8.820;2024-01-16T05:35:30;1.60;45.90
48043;DHT22;33988;47.992;8.820;2024-01-16T05:37:57;1.60;45.90
48043;DHT22;33988;47.992;8.820;2024-01-16T05:40:26;1.60;45.90
48043;DHT22;33988;47.992;8.820;2024-01-16T05:42:55;1.50;45.80
48043;DHT22;33988;47.992;8.820;2024-01-16T05:45:24;1.60;45.90
48043;DHT22;33988;47.992;8.820;2024-01-16T05:47:51;1.50;45.80
48043;DHT22;33988;47.992;8.820;2024-01-16T05:50:18;1.50;45.80
48043;DHT22;33988;47.992;8.820;2024-01-16T05:52:46;1.50;45.80
48043;DHT22;33988;47.992;8.820;2024-01-16T05:55:13;1.40;45.90
48043;DHT22;33988;47.992;8.820;2024-01-16T05:57:40;1.40;45.90
48043;DHT22;33988;47.992;8.820;2024-01-16T06:00:07;1.40;46.00
48043;DHT22;33988;47.992;8.820;2024-01-16T06:02:37;1.40;45.90
48043;DHT22;33988;47.992;8.820;2024-01-16T06:05:06;1.40;46.00
48043;DHT22;33988;47.992;8.820;2024-01-16T06:07:34;1.40;46.00
48043;DHT22;33988;47.992;8.820;2024-01-16T06:10:00;1.30;46.00
48043;DHT22;33988;47.992;8.820;2024-01-16T06:12:29;1.40;46.00
48043;DHT22;33988;47.992;8.820;2024-01-16T06:14:56;1.30;46.00
48043;DHT22;33988;47.992;8.820;2024-01-16T06:17:24;1.30;46.00
48043;DHT22;33988;47.992;8.820;2024-01-16T06:19:54;1.30;46.00
48043;DHT22;33988;47.992;8.820;2024-01-16T06:22:21;1.30;46.00
48043;DHT22;33988;47.992;8.820;2024-01-16T06:24:48;1.30;46.00
48043;DHT22;33988;47.992;8.820;2024-01-16T06:27:17;1.20;46.10
48043;DHT22;33988;47.992;8.820;2024-01-16T06:29:46;1.20;46.10
48043;DHT22;33988;47.992;8.820;2024-01-16T06:32:18;1.20;46.10
48043;DHT22;33988;47.992;8.820;2024-01-16T06:34:46;1.20;46.20
48043;DHT22;33988;47.992;8.820;2024-01-16T06:37:20;1.20;46.20
48043;DHT22;33988;47.992;8.820;2024-01-16T06:39:47;1.20;46.20
48043;DHT22;33988;47.992;8.820;2024-01-16T06:42:16;1.20;46.20
48043;DHT22;33988;47.992;8.820;2024-01-16T06:44:43;1.20;46.20
48043;DHT22;33988;47.992;8.820;2024-01-16T06:47:10;1.20;46.20
48043;DHT22;33988;47.992;8.820;2024-01-16T06:49:37;1.20;46.20
48043;DHT22;33988;47.992;8.820;2024-01-16T06:52:04;1.20;46.20
48043;DHT22;33988;47.992;8.820;2024-01-16T06:54:31;1.20;46.20
48043;DHT22;33988;47.992;8.820;2024-01-16T06:56:58;1.20;46.20
48043;DHT22;33988;47.992;8.820;2024-01-16T06:59:27;1.20;46.20
48043;DHT22;33988;47.992;8.820;2024-01-16T07:01:54;1.20;46.10
48043;DHT22;33988;47.992;8.820;2024-01-16T07:04:21;1.20;46.10
48043;DHT22;33988;47.992;8.820;2024-01-16T07:06:53;1.20;46.20
48043;DHT22;33988;47.992;8.820;2024-01-16T07:09:20;1.20;46.10
48043;DHT22;33988;47.992;8.820;2024-01-16T07:11:47;1.20;46.10
48043;DHT22;33988;47.992;8.820;2024-01-16T07:14:17;1.20;46.10
48043;DHT22;33988;47.992;8.820;2024-01-16T07:16:46;1.10;46.10
48043;DHT22;33988;47.992;8.820;2024-01-16T07:19:16;1.10;46.20
48043;DHT22;33988;47.992;8.820;2024-01-16T07:21:43;1.10;46.20
48043;DHT22;33988;47.992;8.820;2024-01-16T07:24:11;1.10;46.20
48043;DHT22;33988;47.992;8.820;2024-01-16T07:26:39;1.10;46.20
48043;DHT22;33988;47.992;8.820;2024-01-16T07:29:08;1.10;46.20
48043;DHT22;33988;47.992;8.820;2024-01-16T07:31:35;1.10;46.20
48043;DHT22;33988;47.992;8.820;2024-01-16T07:34:04;1.10;46.20
48043;DHT22;33988;47.992;8.820;2024-01-16T07:36:32;1.20;46.30
48043;DHT22;33988;47.992;8.820;2024-01-16T07:39:01;1.20;46.30
48043;DHT22;33988;47.992;8.820;2024-01-16T07:41:28;1.20;46.30
48043;DHT22;33988;47.992;8.820;2024-01-16T07:43:55;1.20;46.20
48043;DHT22;33988;47.992;8.820;2024-01-16T07:46:24;1.20;46.20
48043;DHT22;33988;47.992;8.820;2024-01-16T07:48:52;1.20;46.20
48043;DHT22;33988;47.992;8.820;2024-01-16T07:51:21;1.20;46.30
48043;DHT22;33988;47.992;8.820;2024-01-16T07:54:07;1.10;46.20
48043;DHT22;33988;47.992;8.820;2024-01-16T07:56:40;1.10;46.30
48043;DHT22;33988;47.992;8.820;2024-01-16T07:59:07;1.20;46.40
48043;DHT22;33988;47.992;8.820;2024-01-16T08:01:36;1.10;46.30
48043;DHT22;33988;47.992;8.820;2024-01-16T08:04:04;1.20;46.40
48043;DHT22;33988;47.992;8.820;2024-01-16T08:06:31;1.20;46.50
48043;DHT22;33988;47.992;8.820;2024-01-16T08:09:01;1.20;46.40
48043;DHT22;33988;47.992;8.820;2024-01-16T08:11:28;1.20;46.50
48043;DHT22;33988;47.992;8.820;2024-01-16T08:13:56;1.20;46.50
48043;DHT22;33988;47.992;8.820;2024-01-16T08:16:23;1.30;46.50
48043;DHT22;33988;47.992;8.820;2024-01-16T08:18:50;1.30;46.50
48043;DHT22;33988;47.992;8.820;2024-01-16T08:21:17;1.30;46.50
48043;DHT22;33988;47.992;8.820;2024-01-16T08:23:44;1.30;46.50
48043;DHT22;33988;47.992;8.820;2024-01-16T08:26:11;1.30;46.60
48043;DHT22;33988;47.992;8.820;2024-01-16T08:28:38;1.40;46.70
48043;DHT22;33988;47.992;8.820;2024-01-16T08:31:05;1.40;47.00
48043;DHT22;33988;47.992;8.820;2024-01-16T08:33:32;1.50;47.40
48043;DHT22;33988;47.992;8.820;2024-01-16T08:36:12;1.60;47.90
48043;DHT22;33988;47.992;8.820;2024-01-16T08:38:39;1.90;48.50
48043;DHT22;33988;47.992;8.820;2024-01-16T08:41:06;2.10;48.80
48043;DHT22;33988;47.992;8.820;2024-01-16T08:43:33;2.30;49.00
48043;DHT22;33988;47.992;8.820;2024-01-16T08:46:00;2.60;49.10
48043;DHT22;33988;47.992;8.820;2024-01-16T08:48:27;2.90;49.00
48043;DHT22;33988;47.992;8.820;2024-01-16T08:50:55;3.10;48.60
48043;DHT22;33988;47.992;8.820;2024-01-16T08:53:22;3.40;48.30
48043;DHT22;33988;47.992;8.820;2024-01-16T08:55:50;3.60;47.90
48043;DHT22;33988;47.992;8.820;2024-01-16T08:58:23;3.80;47.50
48043;DHT22;33988;47.992;8.820;2024-01-16T09:00:53;3.90;47.10
48043;DHT22;33988;47.992;8.820;2024-01-16T09:03:20;4.00;46.80
48043;DHT22;33988;47.992;8.820;2024-01-16T09:05:47;4.00;46.40
48043;DHT22;33988;47.992;8.820;2024-01-16T09:08:14;4.10;46.10
48043;DHT22;33988;47.992;8.820;2024-01-16T09:10:41;4.10;45.90
48043;DHT22;33988;47.992;8.820;2024-01-16T09:13:08;4.10;45.80
48043;DHT22;33988;47.992;8.820;2024-01-16T09:15:35;4.00;45.60
48043;DHT22;33988;47.992;8.820;2024-01-16T09:18:05;4.00;45.50
48043;DHT22;33988;47.992;8.820;2024-01-16T09:20:32;3.90;45.40
48043;DHT22;33988;47.992;8.820;2024-01-16T09:22:59;3.90;45.40
48043;DHT22;33988;47.992;8.820;2024-01-16T09:25:29;3.80;45.40
48043;DHT22;33988;47.992;8.820;2024-01-16T09:27:59;3.80;45.40
48043;DHT22;33988;47.992;8.820;2024-01-16T09:30:26;3.80;45.50
48043;DHT22;33988;47.992;8.820;2024-01-16T09:32:53;3.70;45.50
48043;DHT22;33988;47.992;8.820;2024-01-16T09:35:23;3.70;45.50
48043;DHT22;33988;47.992;8.820;2024-01-16T09:37:52;3.60;45.50
48043;DHT22;33988;47.992;8.820;2024-01-16T09:40:20;3.60;45.50
48043;DHT22;33988;47.992;8.820;2024-01-16T09:42:49;3.60;45.50
48043;DHT22;33988;47.992;8.820;2024-01-16T09:45:19;3.60;45.60
48043;DHT22;33988;47.992;8.820;2024-01-16T09:47:51;3.50;45.60
48043;DHT22;33988;47.992;8.820;2024-01-16T09:50:21;3.50;45.70
48043;DHT22;33988;47.992;8.820;2024-01-16T09:52:51;3.50;45.70
48043;DHT22;33988;47.992;8.820;2024-01-16T09:55:25;3.50;45.80
48043;DHT22;33988;47.992;8.820;2024-01-16T09:57:55;3.50;45.90
48043;DHT22;33988;47.992;8.820;2024-01-16T10:00:24;3.50;45.90
48043;DHT22;33988;47.992;8.820;2024-01-16T10:02:53;3.40;45.90
48043;DHT22;33988;47.992;8.820;2024-01-16T10:05:20;3.40;45.90
48043;DHT22;33988;47.992;8.820;2024-01-16T10:07:47;3.40;46.00
48043;DHT22;33988;47.992;8.820;2024-01-16T10:10:18;3.40;46.10
48043;DHT22;33988;47.992;8.820;2024-01-16T10:13:00;3.40;46.10
48043;DHT22;33988;47.992;8.820;2024-01-16T10:15:30;3.40;46.20
48043;DHT22;33988;47.992;8.820;2024-01-16T10:17:58;3.40;46.20
48043;DHT22;33988;47.992;8.820;2024-01-16T10:20:34;3.40;46.20
48043;DHT22;33988;47.992;8.820;2024-01-16T10:23:02;3.40;46.30
48043;DHT22;33988;47.992;8.820;2024-01-16T10:25:30;3.50;46.30
48043;DHT22;33988;47.992;8.820;2024-01-16T10:28:05;3.50;46.40
48043;DHT22;33988;47.992;8.820;2024-01-16T10:30:38;3.50;46.40
48043;DHT22;33988;47.992;8.820;2024-01-16T10:33:14;3.60;47.20
48043;DHT22;33988;47.992;8.820;2024-01-16T10:35:44;3.60;46.60
48043;DHT22;33988;47.992;8.820;2024-01-16T10:38:20;3.60;46.60
48043;DHT22;33988;47.992;8.820;2024-01-16T10:43:40;3.70;46.70
48043;DHT22;33988;47.992;8.820;2024-01-16T10:46:15;3.80;46.70
48043;DHT22;33988;47.992;8.820;2024-01-16T10:48:44;3.80;46.70
48043;DHT22;33988;47.992;8.820;2024-01-16T10:51:28;3.90;46.80
48043;DHT22;33988;47.992;8.820;2024-01-16T10:54:03;3.90;46.80
48043;DHT22;33988;47.992;8.820;2024-01-16T10:56:35;3.90;46.80
48043;DHT22;33988;47.992;8.820;2024-01-16T11:01:40;4.10;46.90
48043;DHT22;33988;47.992;8.820;2024-01-16T11:04:11;4.10;46.90
48043;DHT22;33988;47.992;8.820;2024-01-16T11:06:41;4.20;46.90
48043;DHT22;33988;47.992;8.820;2024-01-16T11:09:09;4.20;46.90
48043;DHT22;33988;47.992;8.820;2024-01-16T11:11:43;4.30;47.00
48043;DHT22;33988;47.992;8.820;2024-01-16T11:14:13;4.30;47.00
48043;DHT22;33988;47.992;8.820;2024-01-16T11:16:45;4.30;47.00
48043;DHT22;33988;47.992;8.820;2024-01-16T11:19:14;4.40;47.00
48043;DHT22;33988;47.992;8.820;2024-01-16T11:22:01;4.40;47.10
48043;DHT22;33988;47.992;8.820;2024-01-16T11:24:31;4.50;47.10
48043;DHT22;33988;47.992;8.820;2024-01-16T11:26:58;4.50;47.10
48043;DHT22;33988;47.992;8.820;2024-01-16T11:31:56;4.60;47.10
48043;DHT22;33988;47.992;8.820;2024-01-16T11:34:53;4.70;47.20
48043;DHT22;33988;47.992;8.820;2024-01-16T11:37:27;4.70;47.20
48043;DHT22;33988;47.992;8.820;2024-01-16T11:42:48;4.80;47.20
48043;DHT22;33988;47.992;8.820;2024-01-16T11:48:16;4.90;47.30
48043;DHT22;33988;47.992;8.820;2024-01-16T11:50:47;4.90;47.30
48043;DHT22;33988;47.992;8.820;2024-01-16T11:53:36;5.00;47.40
48043;DHT22;33988;47.992;8.820;2024-01-16T12:02:21;5.10;47.40
48043;DHT22;33988;47.992;8.820;2024-01-16T12:04:53;5.20;47.50
48043;DHT22;33988;47.992;8.820;2024-01-16T12:07:25;5.20;47.50
48043;DHT22;33988;47.992;8.820;2024-01-16T12:09:52;5.30;47.50
48043;DHT22;33988;47.992;8.820;2024-01-16T12:12:25;5.30;47.50
48043;DHT22;33988;47.992;8.820;2024-01-16T12:14:56;5.40;47.50
48043;DHT22;33988;47.992;8.820;2024-01-16T12:17:23;5.40;48.20
48043;DHT22;33988;47.992;8.820;2024-01-16T12:19:50;5.50;47.60
48043;DHT22;33988;47.992;8.820;2024-01-16T12:22:17;5.50;47.60
48043;DHT22;33988;47.992;8.820;2024-01-16T12:24:50;5.50;47.60
48043;DHT22;33988;47.992;8.820;2024-01-16T12:27:22;5.60;47.60
48043;DHT22;33988;47.992;8.820;2024-01-16T12:29:49;5.70;47.70
48043;DHT22;33988;47.992;8.820;2024-01-16T12:32:19;5.70;48.30
48043;DHT22;33988;47.992;8.820;2024-01-16T12:34:48;5.70;47.70
48043;DHT22;33988;47.992;8.820;2024-01-16T12:37:16;5.70;47.70
48043;DHT22;33988;47.992;8.820;2024-01-16T12:39:43;5.80;47.70
48043;DHT22;33988;47.992;8.820;2024-01-16T12:42:13;5.80;47.70
48043;DHT22;33988;47.992;8.820;2024-01-16T12:44:41;5.80;47.70
48043;DHT22;33988;47.992;8.820;2024-01-16T12:47:08;5.90;47.80
48043;DHT22;33988;47.992;8.820;2024-01-16T12:49:43;5.90;47.80
48043;DHT22;33988;47.992;8.820;2024-01-16T12:52:21;5.90;47.70
48043;DHT22;33988;47.992;8.820;2024-01-16T12:55:00;6.00;47.80
48043;DHT22;33988;47.992;8.820;2024-01-16T12:57:28;6.00;47.70
48043;DHT22;33988;47.992;8.820;2024-01-16T12:59:55;6.00;47.80
48043;DHT22;33988;47.992;8.820;2024-01-16T13:02:25;6.10;47.80
48043;DHT22;33988;47.992;8.820;2024-01-16T13:04:59;6.10;47.80
48043;DHT22;33988;47.992;8.820;2024-01-16T13:07:28;6.10;47.80
48043;DHT22;33988;47.992;8.820;2024-01-16T13:10:11;6.20;47.90
48043;DHT22;33988;47.992;8.820;2024-01-16T13:12:45;6.10;47.80
48043;DHT22;33988;47.992;8.820;2024-01-16T13:15:12;6.20;47.90
48043;DHT22;33988;47.992;8.820;2024-01-16T13:17:43;6.20;47.90
48043;DHT22;33988;47.992;8.820;2024-01-16T13:20:10;6.00;48.50
48043;DHT22;33988;47.992;8.820;2024-01-16T13:22:41;6.20;47.90
48043;DHT22;33988;47.992;8.820;2024-01-16T13:25:14;6.20;47.90
48043;DHT22;33988;47.992;8.820;2024-01-16T13:27:41;6.30;47.90
48043;DHT22;33988;47.992;8.820;2024-01-16T13:30:08;6.30;48.00
48043;DHT22;33988;47.992;8.820;2024-01-16T13:32:36;6.30;47.90
48043;DHT22;33988;47.992;8.820;2024-01-16T13:35:04;6.40;48.00
48043;DHT22;33988;47.992;8.820;2024-01-16T13:37:38;6.40;48.00
48043;DHT22;33988;47.992;8.820;2024-01-16T13:40:10;6.40;48.00
48043;DHT22;33988;47.992;8.820;2024-01-16T13:42:48;6.50;48.00
48043;DHT22;33988;47.992;8.820;2024-01-16T13:45:17;6.50;48.00
48043;DHT22;33988;47.992;8.820;2024-01-16T13:47:45;6.50;48.00
48043;DHT22;33988;47.992;8.820;2024-01-16T13:50:14;6.60;48.20
48043;DHT22;33988;47.992;8.820;2024-01-16T13:52:44;6.60;48.10
48043;DHT22;33988;47.992;8.820;2024-01-16T13:55:12;6.70;48.10
48043;DHT22;33988;47.992;8.820;2024-01-16T13:57:39;6.70;48.10
48043;DHT22;33988;47.992;8.820;2024-01-16T14:00:08;6.70;48.10
48043;DHT22;33988;47.992;8.820;2024-01-16T14:02:44;6.80;48.00
48043;DHT22;33988;47.992;8.820;2024-01-16T14:05:16;6.80;48.00
48043;DHT22;33988;47.992;8.820;2024-01-16T14:07:49;6.80;48.00
48043;DHT22;33988;47.992;8.820;2024-01-16T14:10:22;6.90;48.00
48043;DHT22;33988;47.992;8.820;2024-01-16T14:12:51;6.90;48.00
48043;DHT22;33988;47.992;8.820;2024-01-16T14:15:20;7.00;48.00
48043;DHT22;33988;47.992;8.820;2024-01-16T14:17:54;7.00;47.90
48043;DHT22;33988;47.992;8.820;2024-01-16T14:20:26;7.10;48.00
48043;DHT22;33988;47.992;8.820;2024-01-16T14:22:54;7.10;47.90
48043;DHT22;33988;47.992;8.820;2024-01-16T14:25:22;6.90;47.80
48043;DHT22;33988;47.992;8.820;2024-01-16T14:28:02;7.00;47.80
48043;DHT22;33988;47.992;8.820;2024-01-16T14:30:34;7.00;47.60
48043;DHT22;33988;47.992;8.820;2024-01-16T14:33:07;7.00;47.60
48043;DHT22;33988;47.992;8.820;2024-01-16T14:35:35;7.10;47.60
48043;DHT22;33988;47.992;8.820;2024-01-16T14:38:02;7.10;47.60
48043;DHT22;33988;47.992;8.820;2024-01-16T14:40:32;7.10;47.50
48043;DHT22;33988;47.992;8.820;2024-01-16T14:43:02;7.10;47.50
48043;DHT22;33988;47.992;8.820;2024-01-16T14:45:31;7.10;47.50
48043;DHT22;33988;47.992;8.820;2024-01-16T14:47:58;7.10;47.50
48043;DHT22;33988;47.992;8.820;2024-01-16T14:50:33;7.10;47.50
48043;DHT22;33988;47.992;8.820;2024-01-16T14:53:00;7.10;47.50
48043;DHT22;33988;47.992;8.820;2024-01-16T14:55:29;7.10;47.50
48043;DHT22;33988;47.992;8.820;2024-01-16T14:57:56;7.10;47.40
48043;DHT22;33988;47.992;8.820;2024-01-16T15:00:27;7.10;47.40
48043;DHT22;33988;47.992;8.820;2024-01-16T15:02:56;7.10;47.40
48043;DHT22;33988;47.992;8.820;2024-01-16T15:05:26;7.10;47.30
48043;DHT22;33988;47.992;8.820;2024-01-16T15:07:57;7.10;47.30
48043;DHT22;33988;47.992;8.820;2024-01-16T15:10:24;7.10;47.40
48043;DHT22;33988;47.992;8.820;2024-01-16T15:12:54;7.10;47.30
48043;DHT22;33988;47.992;8.820;2024-01-16T15:15:21;7.10;47.20
48043;DHT22;33988;47.992;8.820;2024-01-16T15:17:50;7.10;47.20
48043;DHT22;33988;47.992;8.820;2024-01-16T15:20:19;7.10;47.20
48043;DHT22;33988;47.992;8.820;2024-01-16T15:22:48;7.10;47.20
48043;DHT22;33988;47.992;8.820;2024-01-16T15:25:19;7.10;47.20
48043;DHT22;33988;47.992;8.820;2024-01-16T15:27:49;7.10;47.20
48043;DHT22;33988;47.992;8.820;2024-01-16T15:30:20;7.00;47.10
48043;DHT22;33988;47.992;8.820;2024-01-16T15:33:04;7.00;47.20
48043;DHT22;33988;47.992;8.820;2024-01-16T15:35:33;7.00;47.10
48043;DHT22;33988;47.992;8.820;2024-01-16T15:38:00;6.90;47.10
48043;DHT22;33988;47.992;8.820;2024-01-16T15:40:30;6.80;47.10
48043;DHT22;33988;47.992;8.820;2024-01-16T15:42:57;6.80;47.10
48043;DHT22;33988;47.992;8.820;2024-01-16T15:45:27;6.70;47.10
48043;DHT22;33988;47.992;8.820;2024-01-16T15:47:54;6.70;47.10
48043;DHT22;33988;47.992;8.820;2024-01-16T15:50:22;6.60;47.20
48043;DHT22;33988;47.992;8.820;2024-01-16T15:52:49;6.50;47.20
48043;DHT22;33988;47.992;8.820;2024-01-16T15:55:18;6.50;47.30
48043;DHT22;33988;47.992;8.820;2024-01-16T15:57:45;6.50;47.40
48043;DHT22;33988;47.992;8.820;2024-01-16T16:00:12;6.50;47.40
48043;DHT22;33988;47.992;8.820;2024-01-16T16:02:42;6.50;47.40
48043;DHT22;33988;47.992;8.820;2024-01-16T16:05:14;6.50;47.50
48043;DHT22;33988;47.992;8.820;2024-01-16T16:07:41;6.50;47.40
48043;DHT22;33988;47.992;8.820;2024-01-16T16:10:11;6.50;47.40
48043;DHT22;33988;47.992;8.820;2024-01-16T16:12:40;6.50;47.30
48043;DHT22;33988;47.992;8.820;2024-01-16T16:15:07;6.50;47.30
48043;DHT22;33988;47.992;8.820;2024-01-16T16:17:35;6.50;47.30